createdAt,value
2023-01-30T00:01:00.259Z,43.47
2023-01-30T00:03:28.360Z,39.95
2023-01-30T00:05:55.312Z,44.17
2023-01-30T00:08:22.288Z,34.88
2023-01-30T00:10:49.104Z,48.17
2023-01-30T00:13:16.154Z,42.40
2023-01-30T00:15:43.153Z,32.20
2023-01-30T00:18:10.152Z,40.47
2023-01-30T00:20:38.259Z,34.40
2023-01-30T00:23:05.399Z,46.67
2023-01-30T00:25:32.287Z,29.30
2023-01-30T00:28:00.315Z,36.17
2023-01-30T00:30:27.639Z,43.80
2023-01-30T00:32:55.538Z,40.78
2023-01-30T00:35:22.565Z,44.47
2023-01-30T00:37:50.626Z,49.83
2023-01-30T00:40:17.996Z,28.17
2023-01-30T00:42:44.807Z,35.47
2023-01-30T00:45:12.454Z,49.53
2023-01-30T00:47:39.250Z,45.17
2023-01-30T00:50:07.080Z,35.22
2023-01-30T00:52:33.849Z,33.55
2023-01-30T00:55:01.944Z,36.50
2023-01-30T00:57:28.671Z,44.17
2023-01-30T00:59:55.710Z,36.47
2023-01-30T01:02:22.531Z,31.20
2023-01-30T01:04:49.291Z,25.52
2023-01-30T01:07:16.290Z,25.88
2023-01-30T01:09:43.008Z,45.55
2023-01-30T01:12:11.060Z,39.45
2023-01-30T01:14:37.816Z,39.43
2023-01-30T01:17:04.816Z,37.75
2023-01-30T01:19:31.655Z,41.78
2023-01-30T01:21:58.387Z,37.05
2023-01-30T01:24:25.159Z,39.75
2023-01-30T01:26:52.138Z,34.28
2023-01-30T01:29:20.280Z,35.28
2023-01-30T01:31:47.020Z,35.47
2023-01-30T01:34:13.819Z,25.95
2023-01-30T01:36:56.407Z,29.95
2023-01-30T01:39:23.486Z,26.10
2023-01-30T01:41:50.390Z,43.92
2023-01-30T01:44:17.462Z,44.13
2023-01-30T01:46:50.181Z,30.55
2023-01-30T01:49:21.327Z,31.27
2023-01-30T01:51:53.506Z,38.40
2023-01-30T01:54:24.999Z,31.08
2023-01-30T01:56:52.045Z,27.02
2023-01-30T01:59:24.865Z,35.50
2023-01-30T02:01:55.343Z,36.88
2023-01-30T02:04:22.516Z,36.53
2023-01-30T02:06:49.343Z,39.95
2023-01-30T02:09:16.082Z,28.20
2023-01-30T02:11:48.531Z,18.23
2023-01-30T02:14:16.934Z,27.67
2023-01-30T02:16:45.923Z,28.35
2023-01-30T02:22:15.549Z,17.25
2023-01-30T02:25:14.909Z,15.68
2023-01-30T02:28:10.938Z,27.23
2023-01-30T02:31:00.630Z,15.32
2023-01-30T02:33:36.695Z,16.40
2023-01-30T02:36:11.008Z,13.73
2023-01-30T02:38:46.667Z,20.95
2023-01-30T02:41:22.276Z,20.75
2023-01-30T02:43:58.407Z,19.52
2023-01-30T02:46:33.715Z,20.15
2023-01-30T02:49:06.663Z,16.48
2023-01-30T02:51:36.602Z,16.60
2023-01-30T02:54:05.983Z,18.23
2023-01-30T02:56:44.190Z,13.32
2023-01-30T02:59:12.019Z,22.77
2023-01-30T03:02:03.332Z,17.70
2023-01-30T03:04:40.606Z,18.10
2023-01-30T03:07:20.830Z,16.85
2023-01-30T03:09:58.037Z,16.02
2023-01-30T03:12:37.717Z,22.85
2023-01-30T03:15:10.459Z,16.02
2023-01-30T03:17:43.280Z,15.40
2023-01-30T03:20:11.567Z,15.27
2023-01-30T03:22:38.280Z,18.30
2023-01-30T03:25:06.056Z,14.32
2023-01-30T03:27:34.303Z,15.40
2023-01-30T03:30:01.061Z,13.05
2023-01-30T03:32:27.794Z,14.43
2023-01-30T03:34:55.866Z,10.95
2023-01-30T03:37:22.613Z,19.93
2023-01-30T03:39:49.495Z,12.00
2023-01-30T03:42:16.293Z,17.92
2023-01-30T03:44:43.022Z,17.10
2023-01-30T03:47:09.783Z,14.52
2023-01-30T03:49:36.498Z,18.30
2023-01-30T03:52:05.033Z,17.63
2023-01-30T03:54:31.781Z,13.68
2023-01-30T03:56:58.519Z,13.48
2023-01-30T03:59:25.315Z,17.20
2023-01-30T04:01:52.069Z,14.20
2023-01-30T04:04:18.854Z,13.40
2023-01-30T04:06:45.624Z,13.90
2023-01-30T04:09:13.717Z,15.88
2023-01-30T04:11:40.530Z,15.57
2023-01-30T04:14:07.298Z,18.15
2023-01-30T04:16:34.226Z,15.43
2023-01-30T04:19:01.105Z,16.30
2023-01-30T04:21:27.862Z,10.95
2023-01-30T04:23:54.624Z,14.93
2023-01-30T04:26:22.863Z,17.70
2023-01-30T04:28:49.631Z,14.77
2023-01-30T04:31:16.409Z,18.10
2023-01-30T04:33:43.210Z,11.45
2023-01-30T04:36:10.746Z,16.63
2023-01-30T04:38:38.239Z,16.17
2023-01-30T04:41:05.544Z,10.68
2023-01-30T04:43:33.702Z,20.73
2023-01-30T04:46:00.407Z,15.33
2023-01-30T04:48:27.703Z,11.23
2023-01-30T04:50:55.853Z,12.90
2023-01-30T04:53:24.624Z,19.05
2023-01-30T04:55:51.486Z,14.57
2023-01-30T04:58:18.474Z,13.82
2023-01-30T05:00:47.497Z,12.32
2023-01-30T05:05:40.990Z,13.75
2023-01-30T05:08:07.779Z,16.50
2023-01-30T05:10:34.517Z,9.88
2023-01-30T05:13:05.352Z,14.50
2023-01-30T05:15:32.429Z,17.48
2023-01-30T05:18:00.806Z,14.60
2023-01-30T05:20:27.824Z,18.65
2023-01-30T05:22:54.746Z,10.82
2023-01-30T05:25:21.653Z,14.80
2023-01-30T05:27:48.379Z,13.20
2023-01-30T05:30:15.329Z,7.88
2023-01-30T05:32:42.076Z,12.88
2023-01-30T05:35:10.536Z,20.75
2023-01-30T05:37:37.366Z,16.10
2023-01-30T05:40:04.986Z,10.77
2023-01-30T05:42:31.743Z,13.38
2023-01-30T05:44:58.469Z,17.08
2023-01-30T05:47:25.198Z,14.15
2023-01-30T05:49:51.915Z,15.63
2023-01-30T05:52:20.009Z,11.25
2023-01-30T05:54:46.801Z,9.93
2023-01-30T05:57:13.598Z,10.93
2023-01-30T05:59:40.333Z,11.00
2023-01-30T06:02:07.312Z,8.90
2023-01-30T06:04:34.185Z,10.05
2023-01-30T06:07:00.901Z,13.52
2023-01-30T06:09:28.999Z,6.95
2023-01-30T06:11:55.787Z,12.10
2023-01-30T06:14:22.507Z,9.90
2023-01-30T06:16:49.479Z,16.10
2023-01-30T06:19:16.219Z,12.18
2023-01-30T06:21:42.935Z,9.82
2023-01-30T06:24:09.690Z,9.52
2023-01-30T06:26:37.787Z,15.63
2023-01-30T06:29:04.548Z,12.50
2023-01-30T06:31:31.361Z,14.45
2023-01-30T06:33:58.131Z,13.05
2023-01-30T06:36:26.382Z,10.15
2023-01-30T06:38:53.133Z,12.55
2023-01-30T06:41:20.167Z,10.93
2023-01-30T06:43:48.240Z,15.02
2023-01-30T06:46:15.018Z,7.50
2023-01-30T06:48:41.766Z,12.40
2023-01-30T06:51:08.500Z,14.95
2023-01-30T06:53:35.322Z,12.10
2023-01-30T06:56:02.360Z,18.67
2023-01-30T06:58:29.225Z,13.73
2023-01-30T07:00:57.337Z,13.90
2023-01-30T07:03:24.202Z,18.30
2023-01-30T07:05:51.274Z,11.18
2023-01-30T07:08:18.060Z,15.70
2023-01-30T07:10:45.437Z,13.65
2023-01-30T07:13:12.419Z,13.10
2023-01-30T07:15:39.233Z,15.82
2023-01-30T07:18:07.364Z,14.25
2023-01-30T07:20:34.342Z,13.57
2023-01-30T07:23:01.227Z,10.18
2023-01-30T07:25:29.230Z,19.45
2023-01-30T07:27:57.956Z,18.57
2023-01-30T07:30:24.748Z,17.60
2023-01-30T07:32:51.625Z,15.57
2023-01-30T07:35:20.556Z,18.70
2023-01-30T07:40:14.966Z,16.35
2023-01-30T07:42:41.973Z,13.52
2023-01-30T07:45:09.809Z,8.75
2023-01-30T07:47:37.053Z,16.55
2023-01-30T07:50:04.616Z,10.40
2023-01-30T07:52:33.729Z,13.73
2023-01-30T07:55:01.564Z,13.30
2023-01-30T07:57:29.496Z,15.50
2023-01-30T07:59:56.304Z,16.58
2023-01-30T08:02:23.140Z,12.23
2023-01-30T08:04:49.930Z,20.13
2023-01-30T08:07:16.698Z,16.38
2023-01-30T08:09:44.938Z,15.93
2023-01-30T08:12:11.678Z,10.13
2023-01-30T08:14:38.436Z,18.42
2023-01-30T08:17:05.141Z,15.35
2023-01-30T08:19:31.873Z,13.50
2023-01-30T08:21:59.401Z,17.08
2023-01-30T08:24:26.187Z,13.90
2023-01-30T08:26:54.255Z,13.02
2023-01-30T08:29:20.991Z,14.50
2023-01-30T08:31:48.842Z,15.15
2023-01-30T08:34:15.634Z,14.43
2023-01-30T08:36:42.393Z,28.55
2023-01-30T08:39:09.092Z,20.13
2023-01-30T08:41:35.854Z,11.23
2023-01-30T08:44:04.313Z,15.55
2023-01-30T08:46:31.222Z,16.70
2023-01-30T08:48:57.993Z,14.32
2023-01-30T08:51:24.750Z,10.65
2023-01-30T08:53:51.856Z,14.85
2023-01-30T08:56:19.385Z,13.38
2023-01-30T08:58:46.158Z,13.13
2023-01-30T09:01:14.407Z,15.23
2023-01-30T09:03:41.462Z,17.98
2023-01-30T09:06:08.671Z,6.22
2023-01-30T09:08:35.571Z,14.63
2023-01-30T09:11:04.034Z,18.90
2023-01-30T09:13:31.873Z,10.48
2023-01-30T09:15:58.925Z,16.48
2023-01-30T09:18:27.102Z,12.98
2023-01-30T09:21:02.603Z,17.77
2023-01-30T09:23:29.745Z,12.57
2023-01-30T09:25:56.729Z,12.32
2023-01-30T09:28:23.536Z,13.63
2023-01-30T09:30:52.610Z,14.13
2023-01-30T09:33:19.461Z,15.52
2023-01-30T09:35:48.733Z,11.25
2023-01-30T09:38:15.976Z,16.17
2023-01-30T09:40:53.527Z,10.73
2023-01-30T09:43:33.565Z,8.93
2023-01-30T09:46:11.088Z,11.88
2023-01-30T09:48:48.728Z,15.88
2023-01-30T09:51:30.970Z,10.43
2023-01-30T09:54:10.922Z,13.43
2023-01-30T09:56:37.945Z,14.23
2023-01-30T09:59:05.341Z,16.15
2023-01-30T10:01:40.583Z,14.35
2023-01-30T10:04:14.600Z,11.00
2023-01-30T10:06:54.220Z,11.23
2023-01-30T10:09:33.198Z,13.40
2023-01-30T10:15:02.283Z,9.68
2023-01-30T10:17:38.244Z,11.68
2023-01-30T10:20:21.467Z,8.65
2023-01-30T10:23:04.546Z,15.30
2023-01-30T10:25:34.291Z,13.55
2023-01-30T10:28:06.225Z,8.68
2023-01-30T10:30:33.691Z,9.52
2023-01-30T10:33:06.055Z,14.88
2023-01-30T10:35:36.677Z,13.93
2023-01-30T10:38:12.519Z,12.13
2023-01-30T10:40:42.856Z,12.93
2023-01-30T10:43:16.515Z,9.35
2023-01-30T10:45:53.320Z,13.40
2023-01-30T10:48:46.357Z,18.33
2023-01-30T10:51:24.922Z,8.15
2023-01-30T10:53:58.001Z,9.85
2023-01-30T10:56:32.814Z,20.75
2023-01-30T10:59:07.113Z,13.63
2023-01-30T11:01:39.676Z,12.80
2023-01-30T11:04:19.537Z,13.95
2023-01-30T11:06:46.686Z,14.13
2023-01-30T11:09:14.783Z,12.15
2023-01-30T11:11:49.479Z,13.23
2023-01-30T11:14:16.282Z,13.25
2023-01-30T11:16:46.334Z,13.15
2023-01-30T11:19:20.011Z,18.63
2023-01-30T11:21:49.754Z,10.40
2023-01-30T11:24:21.219Z,12.02
2023-01-30T11:26:48.679Z,15.95
2023-01-30T11:29:25.123Z,19.27
2023-01-30T11:31:52.948Z,12.50
2023-01-30T11:34:21.692Z,14.77
2023-01-30T11:36:49.795Z,16.10
2023-01-30T11:39:23.676Z,11.80
2023-01-30T11:42:02.444Z,15.02
2023-01-30T11:44:31.239Z,13.00
2023-01-30T11:47:01.723Z,11.68
2023-01-30T11:49:48.254Z,14.35
2023-01-30T11:52:25.290Z,17.30
2023-01-30T11:54:58.544Z,16.05
2023-01-30T11:57:25.465Z,18.40
2023-01-30T11:59:56.715Z,11.63
2023-01-30T12:02:26.393Z,14.98
2023-01-30T12:04:56.824Z,21.27
2023-01-30T12:07:25.535Z,15.07
2023-01-30T12:09:55.722Z,15.65
2023-01-30T12:12:31.684Z,11.52
2023-01-30T12:15:09.347Z,15.93
2023-01-30T12:17:44.473Z,13.95
2023-01-30T12:20:17.933Z,11.35
2023-01-30T12:22:49.636Z,14.65
2023-01-30T12:25:23.319Z,19.50
2023-01-30T12:28:01.315Z,20.38
2023-01-30T12:30:35.763Z,18.07
2023-01-30T12:33:04.680Z,11.23
2023-01-30T12:38:18.034Z,12.68
2023-01-30T12:40:56.043Z,13.00
2023-01-30T12:43:39.284Z,12.33
2023-01-30T12:46:15.500Z,12.18
2023-01-30T12:49:11.837Z,10.80
2023-01-30T12:52:01.067Z,12.77
2023-01-30T12:54:41.165Z,13.90
2023-01-30T12:57:19.096Z,17.88
2023-01-30T12:59:54.581Z,12.40
2023-01-30T13:02:42.252Z,11.55
2023-01-30T13:05:20.283Z,12.73
2023-01-30T13:08:00.607Z,12.53
2023-01-30T13:10:34.470Z,16.13
2023-01-30T13:13:14.848Z,16.58
2023-01-30T13:15:52.369Z,16.30
2023-01-30T13:18:25.708Z,11.63
2023-01-30T13:21:01.492Z,12.30
2023-01-30T13:23:37.775Z,12.05
2023-01-30T13:26:07.591Z,13.82
2023-01-30T13:28:38.249Z,14.93
2023-01-30T13:31:08.246Z,11.68
2023-01-30T13:33:38.300Z,20.38
2023-01-30T13:36:12.535Z,17.48
2023-01-30T13:38:44.788Z,17.38
2023-01-30T13:41:14.872Z,20.10
2023-01-30T13:43:46.741Z,12.07
2023-01-30T13:46:19.500Z,13.93
2023-01-30T13:48:54.841Z,14.93
2023-01-30T13:51:41.451Z,14.07
2023-01-30T13:54:25.171Z,9.80
2023-01-30T13:56:58.329Z,11.55
2023-01-30T13:59:44.495Z,16.02
2023-01-30T14:02:18.786Z,12.77
2023-01-30T14:04:47.836Z,17.88
2023-01-30T14:09:46.776Z,17.00
2023-01-30T14:12:19.080Z,16.50
2023-01-30T14:15:01.802Z,14.48
2023-01-30T14:17:28.778Z,13.93
2023-01-30T14:20:00.551Z,16.58
2023-01-30T14:22:33.507Z,12.85
2023-01-30T14:25:42.812Z,12.70
2023-01-30T14:28:49.287Z,15.98
2023-01-30T14:31:52.899Z,15.85
2023-01-30T14:34:49.338Z,18.38
2023-01-30T14:37:44.649Z,13.25
2023-01-30T14:40:36.247Z,10.45
2023-01-30T14:43:37.433Z,17.75
2023-01-30T14:46:08.363Z,15.13
2023-01-30T14:48:42.923Z,16.17
2023-01-30T14:51:19.716Z,13.80
2023-01-30T14:53:53.054Z,13.98
2023-01-30T14:56:37.235Z,18.35
2023-01-30T14:59:08.353Z,15.13
2023-01-30T15:01:59.440Z,13.48
2023-01-30T15:04:31.608Z,20.38
2023-01-30T15:07:05.409Z,15.52
2023-01-30T15:09:32.742Z,25.08
2023-01-30T15:12:20.582Z,13.80
2023-01-30T15:15:01.154Z,25.75
2023-01-30T15:17:39.496Z,18.05
2023-01-30T15:20:28.971Z,25.15
2023-01-30T15:23:31.450Z,16.05
2023-01-30T15:26:14.513Z,13.02
2023-01-30T15:28:51.904Z,20.73
2023-01-30T15:31:21.827Z,12.23
2023-01-30T15:33:50.515Z,16.42
2023-01-30T15:36:26.045Z,18.33
2023-01-30T15:39:00.659Z,25.25
2023-01-30T15:41:32.210Z,27.52
2023-01-30T15:44:32.887Z,19.98
2023-01-30T15:47:20.846Z,17.58
2023-01-30T15:49:57.030Z,11.97
2023-01-30T15:52:28.407Z,16.85
2023-01-30T15:54:59.268Z,18.55
2023-01-30T15:57:30.969Z,17.27
2023-01-30T15:59:58.441Z,19.00
2023-01-30T16:02:29.912Z,14.15
2023-01-30T16:05:14.198Z,14.05
2023-01-30T16:07:41.356Z,17.67
2023-01-30T16:10:14.807Z,10.23
2023-01-30T16:12:41.633Z,18.65
2023-01-30T16:18:13.679Z,14.68
2023-01-30T16:23:37.169Z,17.92
2023-01-30T16:26:08.632Z,20.60
2023-01-30T16:28:35.710Z,20.02
2023-01-30T16:31:04.887Z,18.55
2023-01-30T16:33:32.246Z,15.88
2023-01-30T16:35:59.043Z,19.13
2023-01-30T16:38:36.274Z,13.07
2023-01-30T16:41:03.246Z,17.17
2023-01-30T16:43:32.705Z,19.70
2023-01-30T16:46:45.579Z,18.10
2023-01-30T16:49:16.677Z,20.20
2023-01-30T16:51:43.748Z,22.27
2023-01-30T16:54:19.172Z,18.08
2023-01-30T16:56:48.218Z,13.55
2023-01-30T17:01:46.964Z,18.13
2023-01-30T17:04:20.182Z,18.98
2023-01-30T17:06:52.883Z,11.68
2023-01-30T17:09:36.290Z,14.25
2023-01-30T17:12:34.387Z,16.13
2023-01-30T17:15:34.417Z,13.40
2023-01-30T17:18:02.037Z,11.10
2023-01-30T17:20:37.272Z,12.35
2023-01-30T17:23:08.818Z,13.85
2023-01-30T17:25:39.221Z,7.65
2023-01-30T17:28:06.930Z,9.73
2023-01-30T17:30:35.371Z,14.23
2023-01-30T17:33:02.171Z,9.20
2023-01-30T17:35:28.930Z,12.30
2023-01-30T17:38:04.825Z,10.02
2023-01-30T17:40:35.281Z,15.38
2023-01-30T17:43:02.332Z,15.02
2023-01-30T17:45:29.100Z,16.60
2023-01-30T17:47:57.517Z,11.68
2023-01-30T17:50:24.391Z,17.85
2023-01-30T17:52:51.210Z,15.77
2023-01-30T17:55:18.334Z,19.13
2023-01-30T17:57:47.805Z,18.33
2023-01-30T18:00:17.643Z,12.27
2023-01-30T18:02:45.053Z,18.58
2023-01-30T18:05:13.569Z,16.75
2023-01-30T18:07:40.852Z,14.13
2023-01-30T18:10:11.818Z,13.77
2023-01-30T18:12:39.057Z,13.65
2023-01-30T18:15:06.993Z,15.43
2023-01-30T18:17:35.096Z,9.27
2023-01-30T18:20:01.873Z,14.67
2023-01-30T18:22:29.987Z,7.65
2023-01-30T18:24:56.963Z,17.40
2023-01-30T18:27:24.111Z,6.88
2023-01-30T18:29:51.370Z,17.50
2023-01-30T18:32:20.754Z,11.77
2023-01-30T18:34:47.710Z,13.57
2023-01-30T18:37:14.577Z,11.77
2023-01-30T18:39:42.703Z,12.60
2023-01-30T18:42:13.594Z,8.97
2023-01-30T18:44:40.345Z,12.70
2023-01-30T18:47:07.143Z,18.15
2023-01-30T18:49:33.876Z,14.57
2023-01-30T18:52:00.622Z,10.60
2023-01-30T18:54:27.363Z,13.82
2023-01-30T18:56:55.756Z,13.18
2023-01-30T18:59:23.859Z,10.98
2023-01-30T19:01:50.702Z,14.23
2023-01-30T19:04:17.539Z,13.30
2023-01-30T19:06:44.438Z,12.48
2023-01-30T19:09:13.013Z,13.55
2023-01-30T19:11:39.790Z,16.60
2023-01-30T19:14:08.985Z,16.52
2023-01-30T19:16:38.769Z,13.55
2023-01-30T19:19:06.085Z,14.15
2023-01-30T19:21:33.708Z,15.48
2023-01-30T19:24:02.727Z,12.48
2023-01-30T19:28:56.595Z,10.95
2023-01-30T19:31:26.483Z,7.00
2023-01-30T19:33:54.937Z,13.40
2023-01-30T19:36:23.188Z,18.40
2023-01-30T19:38:51.051Z,13.15
2023-01-30T19:41:19.191Z,9.68
2023-01-30T19:43:46.692Z,10.93
2023-01-30T19:46:13.563Z,14.52
2023-01-30T19:48:42.349Z,15.38
2023-01-30T19:51:13.309Z,12.98
2023-01-30T19:53:40.930Z,18.63
2023-01-30T19:56:08.894Z,19.35
2023-01-30T19:58:35.726Z,22.27
2023-01-30T20:01:07.057Z,17.08
2023-01-30T20:03:36.355Z,16.60
2023-01-30T20:06:11.018Z,20.30
2023-01-30T20:08:39.291Z,13.38
2023-01-30T20:11:07.599Z,15.82
2023-01-30T20:13:37.162Z,18.27
2023-01-30T20:16:06.519Z,18.35
2023-01-30T20:18:35.074Z,18.83
2023-01-30T20:21:07.873Z,18.70
2023-01-30T20:23:35.642Z,11.77
2023-01-30T20:26:07.371Z,18.05
2023-01-30T20:28:34.962Z,14.40
2023-01-30T20:31:08.048Z,15.20
2023-01-30T20:33:35.179Z,23.50
2023-01-30T20:36:02.559Z,18.48
2023-01-30T20:38:31.916Z,18.90
2023-01-30T20:41:02.889Z,14.07
2023-01-30T20:43:31.233Z,13.27
2023-01-30T20:46:05.943Z,17.23
2023-01-30T20:48:32.965Z,16.95
2023-01-30T20:51:04.125Z,12.52
2023-01-30T20:53:32.656Z,13.13
2023-01-30T20:56:02.694Z,13.82
2023-01-30T20:58:30.426Z,15.02
2023-01-30T21:01:05.847Z,6.97
2023-01-30T21:03:32.596Z,17.40
2023-01-30T21:05:59.998Z,9.02
2023-01-30T21:08:27.203Z,19.65
2023-01-30T21:11:02.296Z,10.68
2023-01-30T21:13:29.210Z,15.02
2023-01-30T21:16:01.525Z,16.50
2023-01-30T21:18:30.247Z,15.88
2023-01-30T21:20:57.303Z,13.07
2023-01-30T21:23:24.075Z,10.68
2023-01-30T21:25:50.979Z,14.60
2023-01-30T21:28:19.253Z,14.13
2023-01-30T21:30:46.099Z,18.08
2023-01-30T21:33:13.169Z,14.32
2023-01-30T21:35:40.271Z,11.20
2023-01-30T21:38:07.003Z,18.50
2023-01-30T21:40:33.776Z,13.95
2023-01-30T21:43:00.510Z,17.30
2023-01-30T21:45:28.768Z,19.75
2023-01-30T21:47:55.523Z,14.02
2023-01-30T21:50:22.293Z,19.40
2023-01-30T21:52:49.057Z,19.15
2023-01-30T21:55:15.909Z,14.48
2023-01-30T21:57:42.615Z,15.23
2023-01-30T22:00:10.665Z,21.50
2023-01-30T22:02:38.822Z,13.67
2023-01-30T22:05:06.584Z,12.33
2023-01-30T22:07:33.294Z,18.40
2023-01-30T22:10:00.049Z,20.60
2023-01-30T22:12:26.822Z,14.95
2023-01-30T22:14:53.609Z,12.32
2023-01-30T22:17:20.473Z,16.25
2023-01-30T22:19:48.595Z,11.82
2023-01-30T22:22:15.377Z,13.23
2023-01-30T22:24:42.155Z,15.35
2023-01-30T22:27:08.939Z,17.20
2023-01-30T22:29:36.147Z,13.27
2023-01-30T22:32:03.170Z,13.43
2023-01-30T22:34:30.031Z,18.23
2023-01-30T22:36:58.119Z,14.48
2023-01-30T22:39:24.955Z,7.73
2023-01-30T22:41:51.721Z,12.10
2023-01-30T22:44:18.500Z,13.38
2023-01-30T22:46:45.307Z,12.90
2023-01-30T22:49:12.096Z,12.35
2023-01-30T22:51:40.876Z,13.38
2023-01-30T22:54:12.109Z,15.70
2023-01-30T22:56:40.796Z,20.70
2023-01-30T22:59:08.532Z,16.23
2023-01-30T23:01:37.161Z,8.55
2023-01-30T23:04:06.364Z,14.70
2023-01-30T23:06:33.754Z,15.15
2023-01-30T23:09:00.976Z,14.30
2023-01-30T23:11:34.593Z,19.27
2023-01-30T23:14:07.397Z,15.57
2023-01-30T23:16:36.021Z,17.23
2023-01-30T23:19:04.078Z,17.58
2023-01-30T23:21:32.535Z,16.35
2023-01-30T23:24:00.860Z,12.85
2023-01-30T23:26:32.154Z,10.68
2023-01-30T23:29:00.889Z,15.40
2023-01-30T23:31:28.793Z,14.68
2023-01-30T23:33:57.189Z,12.98
2023-01-30T23:36:24.330Z,14.82
2023-01-30T23:38:52.348Z,11.23
2023-01-30T23:41:22.045Z,17.70
2023-01-30T23:43:50.941Z,13.98
2023-01-30T23:46:20.230Z,17.88
2023-01-30T23:48:48.985Z,13.73
2023-01-30T23:51:17.599Z,12.25
2023-01-30T23:53:45.131Z,15.70
2023-01-30T23:56:14.143Z,16.38
2023-01-30T23:58:42.025Z,8.38
